Time;durP1;ratioP1;P1;durP2;ratioP2;P2;SDS_P1;SDS_P2;PMS_P1;PMS_P2;Temp;Humidity;BMP_temperature;BMP_pressure;BME280_temperature;BME280_humidity;BME280_pressure;Samples;Min_cycle;Max_cycle;Signal;HPM_P1;HPM_P2
2023/03/01 00:01:31;;;;;;;16.00;8.38;;;-0.40;69.60;;;;;;4985031;28;20128;-78
2023/03/01 00:03:57;;;;;;;17.20;8.77;;;-0.40;69.70;;;;;;4983975;28;20034;-78
2023/03/01 00:06:22;;;;;;;15.82;8.50;;;-0.50;69.60;;;;;;4984673;28;20041;-79
2023/03/01 00:08:48;;;;;;;13.38;8.07;;;-0.50;69.80;;;;;;4999442;28;20084;-78
2023/03/01 00:11:23;;;;;;;14.50;8.02;;;-0.50;69.90;;;;;;4983739;28;20048;-79
2023/03/01 00:13:50;;;;;;;16.38;8.00;;;-0.50;70.00;;;;;;5000114;28;20107;-78
2023/03/01 00:16:21;;;;;;;18.58;8.90;;;-0.50;70.00;;;;;;4986687;28;20037;-77
2023/03/01 00:18:46;;;;;;;18.40;9.48;;;-0.50;70.20;;;;;;4988888;28;20069;-79
2023/03/01 00:21:12;;;;;;;13.68;8.40;;;-0.60;70.10;;;;;;4991697;28;20103;-77
2023/03/01 00:23:38;;;;;;;16.83;8.43;;;-0.50;70.20;;;;;;5004717;28;20681;-78
2023/03/01 00:26:06;;;;;;;13.35;8.73;;;-0.60;70.20;;;;;;5016379;28;20034;-79
2023/03/01 00:28:32;;;;;;;14.40;8.25;;;-0.60;70.40;;;;;;5004252;28;20099;-78
2023/03/01 00:31:05;;;;;;;17.52;8.75;;;-0.60;70.40;;;;;;5012283;28;20050;-79
2023/03/01 00:33:31;;;;;;;19.55;9.45;;;-0.60;70.30;;;;;;4982131;28;20041;-79
2023/03/01 00:35:58;;;;;;;14.93;8.25;;;-0.60;70.30;;;;;;4980778;28;20050;-78
2023/03/01 00:38:23;;;;;;;18.00;9.70;;;-0.60;70.50;;;;;;4982510;28;20049;-79
2023/03/01 00:40:49;;;;;;;14.95;8.82;;;-0.60;70.60;;;;;;4996241;28;20045;-78
2023/03/01 00:43:15;;;;;;;19.95;10.02;;;-0.60;70.70;;;;;;4967483;28;20069;-78
2023/03/01 00:45:40;;;;;;;15.38;8.32;;;-0.70;70.70;;;;;;4966597;28;20037;-78
2023/03/01 00:48:06;;;;;;;14.02;8.18;;;-0.70;70.70;;;;;;4979354;28;20069;-79
2023/03/01 00:50:31;;;;;;;19.55;8.77;;;-0.60;70.90;;;;;;4967166;28;20058;-79
2023/03/01 00:52:57;;;;;;;19.60;8.85;;;-0.60;71.00;;;;;;4966146;28;20042;-79
2023/03/01 00:55:23;;;;;;;18.85;9.55;;;-0.70;70.90;;;;;;4978417;28;20062;-78
2023/03/01 00:57:48;;;;;;;13.63;8.57;;;-0.70;71.10;;;;;;4996900;28;20065;-78
2023/03/01 01:00:14;;;;;;;17.77;8.38;;;-0.70;71.10;;;;;;4994926;28;20042;-78
2023/03/01 01:02:40;;;;;;;13.45;8.88;;;-0.70;71.10;;;;;;4955076;28;20042;-78
2023/03/01 01:05:06;;;;;;;15.05;8.75;;;-0.70;71.10;;;;;;4949605;28;20045;-78
2023/03/01 01:07:31;;;;;;;14.77;7.72;;;-0.80;71.10;;;;;;4965694;28;20037;-78
2023/03/01 01:09:57;;;;;;;15.23;8.75;;;-0.80;71.20;;;;;;4996161;28;20410;-79
2023/03/01 01:12:22;;;;;;;18.48;8.70;;;-0.80;71.30;;;;;;4981561;28;20061;-78
2023/03/01 01:14:48;;;;;;;16.92;8.85;;;-0.80;71.40;;;;;;4995764;28;20140;-79
2023/03/01 01:17:13;;;;;;;15.70;8.18;;;-0.80;71.40;;;;;;4976145;28;20121;-78
2023/03/01 01:19:39;;;;;;;17.25;9.10;;;-0.80;71.50;;;;;;4965615;28;20038;-78
2023/03/01 01:22:05;;;;;;;15.45;8.63;;;-0.80;71.60;;;;;;4967909;28;20033;-78
2023/03/01 01:24:30;;;;;;;17.27;8.18;;;-0.80;71.60;;;;;;4977635;28;20042;-78
2023/03/01 01:26:56;;;;;;;17.70;8.90;;;-0.90;71.60;;;;;;4977777;28;20033;-79
2023/03/01 01:29:21;;;;;;;17.75;9.18;;;-0.80;71.70;;;;;;4996880;28;20049;-79
2023/03/01 01:31:47;;;;;;;16.92;8.77;;;-0.80;71.80;;;;;;4987316;28;20416;-78
2023/03/01 01:34:15;;;;;;;13.55;8.02;;;-0.90;71.90;;;;;;5000931;28;20036;-78
2023/03/01 01:36:40;;;;;;;16.35;8.80;;;-0.80;72.00;;;;;;5002294;28;20041;-79
2023/03/01 01:39:06;;;;;;;13.63;8.50;;;-0.90;72.00;;;;;;4995712;28;20048;-78
2023/03/01 01:41:31;;;;;;;17.48;10.32;;;-0.90;72.00;;;;;;4999385;28;20767;-77
2023/03/01 01:44:13;;;;;;;19.77;10.40;;;-0.90;72.10;;;;;;5014522;28;20034;-78
2023/03/01 01:47:00;;;;;;;13.88;8.60;;;-0.80;72.40;;;;;;4983525;28;20817;-78
2023/03/01 01:49:33;;;;;;;20.88;9.55;;;-0.90;72.40;;;;;;4986790;28;20052;-78
2023/03/01 01:52:04;;;;;;;13.90;7.78;;;-0.80;72.30;;;;;;4996090;28;20531;-78
2023/03/01 01:54:35;;;;;;;18.92;9.88;;;-0.80;73.10;;;;;;5014398;28;20519;-78
2023/03/01 01:57:03;;;;;;;20.33;9.88;;;-0.80;72.40;;;;;;4997421;28;20523;-79
2023/03/01 01:59:29;;;;;;;18.42;8.52;;;-0.80;72.40;;;;;;4996400;28;20033;-78
2023/03/01 02:01:55;;;;;;;14.95;7.72;;;-0.90;72.40;;;;;;5015456;28;20041;-78
2023/03/01 02:04:20;;;;;;;20.88;9.63;;;-0.80;72.60;;;;;;4997879;28;20037;-79
2023/03/01 02:06:53;;;;;;;20.13;9.93;;;-0.80;72.70;;;;;;4999129;28;20037;-78
2023/03/01 02:09:18;;;;;;;20.52;10.18;;;-0.90;72.70;;;;;;4985923;28;20111;-78
2023/03/01 02:11:44;;;;;;;18.05;9.57;;;-0.90;72.70;;;;;;4985907;28;20072;-77
2023/03/01 02:14:09;;;;;;;18.17;9.43;;;-0.80;72.80;;;;;;4996044;28;20411;-78
2023/03/01 02:16:35;;;;;;;17.85;9.18;;;-0.80;72.80;;;;;;5001888;28;20041;-78
2023/03/01 02:19:01;;;;;;;18.02;9.55;;;-0.90;72.70;;;;;;4997634;28;20121;-79
2023/03/01 02:21:48;;;;;;;23.13;10.70;;;-0.90;72.80;;;;;;4999140;28;20357;-78
2023/03/01 02:24:29;;;;;;;18.38;9.38;;;-0.80;73.10;;;;;;4997602;28;20063;-79
2023/03/01 02:26:55;;;;;;;19.60;9.27;;;-0.90;72.90;;;;;;4996935;28;20091;-78
2023/03/01 02:29:22;;;;;;;14.88;8.05;;;-0.90;72.90;;;;;;4984844;28;20049;-78
2023/03/01 02:31:49;;;;;;;17.52;9.38;;;-0.80;73.00;;;;;;4958508;28;20096;-79
2023/03/01 02:34:20;;;;;;;19.90;10.02;;;-0.90;73.00;;;;;;4962744;28;20044;-79
2023/03/01 02:37:04;;;;;;;18.98;9.90;;;-0.90;73.10;;;;;;4980919;28;20046;-78
2023/03/01 02:39:41;;;;;;;15.30;9.32;;;-0.90;73.30;;;;;;4962484;28;20038;-78
2023/03/01 02:42:08;;;;;;;19.08;8.43;;;-0.90;73.20;;;;;;4993721;28;20034;-79
2023/03/01 02:44:33;;;;;;;19.33;10.02;;;-0.90;73.20;;;;;;4965290;28;20042;-78
2023/03/01 02:47:00;;;;;;;19.52;9.68;;;-0.90;73.20;;;;;;4994124;28;20037;-78
2023/03/01 02:49:28;;;;;;;15.73;8.80;;;-0.90;73.30;;;;;;4977513;28;20581;-78
2023/03/01 02:52:21;;;;;;;20.80;8.73;;;-0.90;73.40;;;;;;4978464;28;20576;-79
2023/03/01 02:54:57;;;;;;;17.15;9.07;;;-0.90;73.50;;;;;;4977746;28;20599;-78
2023/03/01 02:57:23;;;;;;;19.83;9.98;;;-0.90;73.40;;;;;;4966976;28;20049;-78
2023/03/01 02:59:49;;;;;;;18.20;9.75;;;-0.90;73.50;;;;;;4975268;28;20503;-78
2023/03/01 03:02:36;;;;;;;19.92;9.93;;;-0.90;73.50;;;;;;4950365;28;20099;-79
2023/03/01 03:05:13;;;;;;;18.65;9.63;;;-0.80;73.90;;;;;;4974342;28;20041;-78
2023/03/01 03:07:40;;;;;;;16.38;8.52;;;-0.90;73.60;;;;;;4974550;28;20049;-78
2023/03/01 03:10:07;;;;;;;20.70;9.93;;;-0.90;73.60;;;;;;4968017;28;20091;-79
2023/03/01 03:12:33;;;;;;;16.52;8.98;;;-0.90;73.60;;;;;;4970944;28;20041;-79
2023/03/01 03:14:58;;;;;;;14.95;9.13;;;-0.90;73.60;;;;;;4988795;28;20050;-77
2023/03/01 03:17:24;;;;;;;14.85;8.70;;;-0.90;73.70;;;;;;4986726;28;20046;-79
2023/03/01 03:19:49;;;;;;;17.33;10.23;;;-0.90;73.80;;;;;;5000841;28;20133;-79
2023/03/01 03:22:15;;;;;;;20.38;10.57;;;-0.90;73.80;;;;;;4987575;28;20038;-79
2023/03/01 03:24:40;;;;;;;18.02;9.45;;;-0.90;73.90;;;;;;4990741;28;20044;-79
2023/03/01 03:27:06;;;;;;;19.88;9.95;;;-0.90;73.90;;;;;;4987772;28;20085;-78
2023/03/01 03:29:32;;;;;;;16.50;9.15;;;-0.90;73.90;;;;;;4985633;28;20037;-80
2023/03/01 03:31:57;;;;;;;19.83;10.05;;;-0.90;74.00;;;;;;4981915;28;20427;-79
2023/03/01 03:34:23;;;;;;;18.52;9.38;;;-0.90;74.00;;;;;;5007162;28;20030;-79
2023/03/01 03:37:02;;;;;;;17.42;8.57;;;-0.90;74.80;;;;;;5005421;28;20379;-78
2023/03/01 03:39:27;;;;;;;16.95;9.15;;;-0.90;74.10;;;;;;4985989;28;20056;-79
2023/03/01 03:41:53;;;;;;;14.63;8.02;;;-0.90;74.00;;;;;;4989150;28;20037;-78
2023/03/01 03:44:19;;;;;;;17.67;9.07;;;-0.90;74.10;;;;;;5006485;28;20029;-79
2023/03/01 03:46:45;;;;;;;16.58;8.75;;;-0.90;74.20;;;;;;5006004;28;20068;-79
2023/03/01 03:49:10;;;;;;;14.45;8.25;;;-0.90;74.20;;;;;;5002203;28;20115;-80
2023/03/01 03:51:36;;;;;;;18.08;9.48;;;-0.90;74.30;;;;;;5020914;28;20079;-80
2023/03/01 03:54:01;;;;;;;19.13;9.45;;;-0.90;74.30;;;;;;5018200;28;20037;-78
2023/03/01 03:56:27;;;;;;;19.00;9.88;;;-0.90;74.30;;;;;;5004637;28;20724;-79
2023/03/01 03:58:52;;;;;;;15.65;8.77;;;-0.90;74.40;;;;;;4995206;28;20053;-79
2023/03/01 04:01:18;;;;;;;17.38;8.40;;;-0.90;74.40;;;;;;5005050;28;20045;-78
2023/03/01 04:03:47;;;;;;;16.02;9.20;;;-0.90;74.40;;;;;;5022936;28;20037;-79
2023/03/01 04:06:13;;;;;;;16.85;8.75;;;-0.90;74.50;;;;;;5009385;28;20044;-78
2023/03/01 04:08:39;;;;;;;17.50;9.32;;;-0.90;74.50;;;;;;4988664;28;20116;-78
2023/03/01 04:13:48;;;;;;;18.52;9.48;;;-0.90;74.60;;;;;;5010470;28;20052;-79
2023/03/01 04:16:14;;;;;;;20.63;9.25;;;-0.90;74.60;;;;;;5004577;28;20045;-78
2023/03/01 04:18:39;;;;;;;17.23;9.85;;;-0.90;74.60;;;;;;4988199;28;20111;-80
2023/03/01 04:21:05;;;;;;;19.13;9.88;;;-1.00;74.60;;;;;;5018043;28;20030;-78
2023/03/01 04:23:30;;;;;;;19.63;10.45;;;-1.00;74.60;;;;;;5016091;28;20103;-79
2023/03/01 04:25:57;;;;;;;18.75;9.75;;;-0.90;75.50;;;;;;5001353;28;21043;-79
2023/03/01 04:28:30;;;;;;;19.67;10.70;;;-1.00;74.70;;;;;;5002497;28;20029;-79
2023/03/01 04:30:57;;;;;;;64.53;34.92;;;-0.90;74.80;;;;;;4969547;28;20053;-78
2023/03/01 04:33:23;;;;;;;20.95;11.55;;;-0.90;74.90;;;;;;4998638;28;20067;-78
2023/03/01 04:35:49;;;;;;;19.17;9.77;;;-0.90;74.80;;;;;;5000585;28;20073;-77
2023/03/01 04:38:15;;;;;;;16.98;9.45;;;-0.90;74.90;;;;;;5002030;28;20587;-77
2023/03/01 04:40:42;;;;;;;16.42;9.27;;;-0.90;74.90;;;;;;4995852;28;20832;-79
2023/03/01 04:43:08;;;;;;;18.40;9.73;;;-0.90;74.90;;;;;;5000449;28;20797;-79
2023/03/01 04:45:34;;;;;;;24.13;10.43;;;-0.80;75.00;;;;;;4985697;28;20527;-77
2023/03/01 04:47:59;;;;;;;18.58;9.77;;;-0.90;74.90;;;;;;4996803;28;20052;-79
2023/03/01 04:50:25;;;;;;;18.77;10.00;;;-0.90;74.90;;;;;;4984853;28;20632;-79
2023/03/01 04:52:51;;;;;;;20.63;9.65;;;-0.90;75.00;;;;;;5011371;28;20037;-77
2023/03/01 04:55:16;;;;;;;17.77;9.45;;;-0.90;74.90;;;;;;4980151;28;20039;-79
2023/03/01 04:57:42;;;;;;;21.52;10.10;;;-0.80;75.00;;;;;;4970978;28;20041;-79
2023/03/01 05:00:19;;;;;;;16.45;9.40;;;-0.80;75.00;;;;;;4981446;28;20200;-78
2023/03/01 05:02:56;;;;;;;21.05;10.27;;;-0.80;75.00;;;;;;4997389;28;20072;-79
2023/03/01 05:05:48;;;;;;;17.92;9.25;;;-0.80;75.20;;;;;;4995718;28;20411;-78
2023/03/01 05:08:20;;;;;;;20.23;9.77;;;-0.80;75.40;;;;;;4980927;28;20061;-77
2023/03/01 05:10:50;;;;;;;15.48;9.18;;;-0.90;74.90;;;;;;4992518;28;20075;-78
2023/03/01 05:13:20;;;;;;;20.48;10.13;;;-0.90;75.00;;;;;;4986213;28;20718;-78
2023/03/01 05:15:47;;;;;;;19.23;9.85;;;-0.80;75.10;;;;;;4998625;28;20041;-77
2023/03/01 05:18:13;;;;;;;17.27;9.65;;;-0.90;75.10;;;;;;4995879;28;20060;-79
2023/03/01 05:20:38;;;;;;;18.02;10.75;;;-0.90;75.10;;;;;;4979531;28;20523;-79
2023/03/01 05:23:05;;;;;;;19.70;9.52;;;-0.80;75.20;;;;;;4996439;28;20120;-79
2023/03/01 05:25:32;;;;;;;20.38;8.93;;;-0.80;75.20;;;;;;4999592;28;20137;-78
2023/03/01 05:28:04;;;;;;;16.05;8.90;;;-0.90;75.10;;;;;;4993114;28;20160;-78
2023/03/01 05:30:30;;;;;;;16.27;8.85;;;-0.90;75.20;;;;;;4995043;28;20033;-78
2023/03/01 05:32:56;;;;;;;17.50;9.05;;;-0.90;75.10;;;;;;4979702;28;20045;-78
2023/03/01 05:35:22;;;;;;;18.52;10.00;;;-0.90;75.20;;;;;;5011867;28;20048;-80
2023/03/01 05:37:48;;;;;;;17.25;9.45;;;-0.90;75.20;;;;;;5011935;28;20591;-77
2023/03/01 05:40:23;;;;;;;16.98;8.82;;;-0.80;75.30;;;;;;4994685;28;20037;-78
2023/03/01 05:42:54;;;;;;;22.25;9.60;;;-0.80;75.30;;;;;;4982191;28;20560;-79
2023/03/01 05:45:19;;;;;;;15.48;8.70;;;-0.80;75.30;;;;;;4981393;28;20067;-78
2023/03/01 05:47:46;;;;;;;17.67;9.98;;;-0.80;75.20;;;;;;4998960;28;20431;-78
2023/03/01 05:50:18;;;;;;;20.45;10.23;;;-0.80;75.20;;;;;;4964889;28;20495;-79
2023/03/01 05:52:45;;;;;;;17.67;9.07;;;-0.80;75.30;;;;;;4982402;28;20742;-79
2023/03/01 05:55:11;;;;;;;17.98;9.18;;;-0.90;75.20;;;;;;4992555;28;20096;-78
2023/03/01 05:57:36;;;;;;;17.25;9.40;;;-0.90;75.20;;;;;;4992819;28;20103;-79
2023/03/01 06:00:02;;;;;;;17.73;9.63;;;-0.90;75.20;;;;;;4984332;28;20174;-78
2023/03/01 06:02:29;;;;;;;20.38;9.85;;;-0.90;75.70;;;;;;4980763;28;20045;-79
2023/03/01 06:04:55;;;;;;;16.70;9.40;;;-0.90;75.30;;;;;;4996030;28;20079;-77
2023/03/01 06:07:20;;;;;;;22.13;11.02;;;-0.90;75.40;;;;;;4995544;28;20041;-79
2023/03/01 06:09:46;;;;;;;17.65;9.93;;;-0.80;75.50;;;;;;5000067;28;20069;-78
2023/03/01 06:12:11;;;;;;;19.63;9.88;;;-0.80;75.40;;;;;;5010863;28;20115;-78
2023/03/01 06:14:37;;;;;;;19.45;10.13;;;-0.80;75.40;;;;;;4995186;28;20149;-78
2023/03/01 06:17:03;;;;;;;18.35;10.27;;;-0.80;75.50;;;;;;4984015;28;20034;-79
2023/03/01 06:19:28;;;;;;;37.92;14.75;;;-0.80;75.40;;;;;;4977944;28;20064;-79
2023/03/01 06:21:54;;;;;;;23.80;11.40;;;-0.80;75.40;;;;;;4996423;28;20041;-78
2023/03/01 06:24:20;;;;;;;69.55;24.45;;;-0.80;75.40;;;;;;4987153;28;20045;-77
2023/03/01 06:26:45;;;;;;;30.42;13.77;;;-0.70;75.40;;;;;;5011786;28;20041;-78
2023/03/01 06:29:11;;;;;;;27.25;12.27;;;-0.70;75.50;;;;;;4997220;28;20111;-78
2023/03/01 06:31:36;;;;;;;20.27;10.70;;;-0.70;75.50;;;;;;5013690;28;20049;-79
2023/03/01 06:34:02;;;;;;;60.58;20.60;;;-0.70;75.40;;;;;;4983614;28;20057;-79
2023/03/01 06:36:27;;;;;;;34.95;14.15;;;-0.60;75.50;;;;;;5000236;28;20105;-79
2023/03/01 06:38:53;;;;;;;43.20;16.17;;;-0.60;75.50;;;;;;4982547;28;20052;-79
2023/03/01 06:41:18;;;;;;;101.28;30.83;;;-0.60;75.40;;;;;;5001611;28;20044;-79
2023/03/01 06:43:44;;;;;;;387.80;105.18;;;-0.60;75.40;;;;;;4987800;28;20037;-79
2023/03/01 06:46:09;;;;;;;87.22;28.98;;;-0.50;75.50;;;;;;5019021;28;20049;-79
2023/03/01 06:48:35;;;;;;;182.35;61.15;;;-0.50;75.30;;;;;;4992386;28;20040;-80
2023/03/01 06:51:01;;;;;;;109.57;37.35;;;-0.50;75.30;;;;;;4996445;28;20050;-79
2023/03/01 06:53:27;;;;;;;111.38;32.95;;;-0.40;75.30;;;;;;5012237;28;20075;-78
2023/03/01 06:56:02;;;;;;;300.52;80.53;;;-0.40;75.20;;;;;;4996431;28;20034;-77
2023/03/01 06:58:27;;;;;;;154.52;48.03;;;-0.30;75.30;;;;;;4987192;28;20121;-78
2023/03/01 07:00:53;;;;;;;56.90;22.63;;;-0.30;75.20;;;;;;4994613;28;20114;-78
2023/03/01 07:03:18;;;;;;;47.45;19.23;;;-0.20;75.20;;;;;;4997301;28;20125;-79
2023/03/01 07:05:44;;;;;;;107.65;41.17;;;-0.20;75.10;;;;;;4989538;28;20041;-79
2023/03/01 07:08:10;;;;;;;62.60;27.00;;;-0.20;75.10;;;;;;5004186;28;20044;-78
2023/03/01 07:10:35;;;;;;;27.42;12.57;;;-0.10;75.10;;;;;;4991980;28;20045;-76
2023/03/01 07:13:01;;;;;;;49.17;19.70;;;-0.10;75.00;;;;;;4980774;28;20037;-78
2023/03/01 07:15:26;;;;;;;31.45;13.80;;;0.00;75.00;;;;;;5009510;28;20116;-79
2023/03/01 07:17:52;;;;;;;49.22;21.02;;;0.10;75.00;;;;;;4991017;28;20100;-78
2023/03/01 07:20:18;;;;;;;36.83;15.93;;;0.10;75.00;;;;;;4994547;28;20042;-78
2023/03/01 07:22:44;;;;;;;53.75;23.13;;;0.20;75.00;;;;;;4996302;28;20064;-78
2023/03/01 07:25:10;;;;;;;143.68;49.80;;;0.30;74.90;;;;;;4980496;28;20033;-78
2023/03/01 07:27:35;;;;;;;49.22;21.13;;;0.30;74.90;;;;;;4977026;28;20719;-79
2023/03/01 07:30:01;;;;;;;79.90;31.30;;;0.40;74.90;;;;;;4995176;28;20041;-79
2023/03/01 07:32:26;;;;;;;41.20;18.63;;;0.50;74.80;;;;;;4982549;28;20088;-79
2023/03/01 07:34:52;;;;;;;29.35;13.75;;;0.60;74.70;;;;;;4993206;28;20066;-78
2023/03/01 07:37:17;;;;;;;34.22;15.15;;;0.60;74.90;;;;;;4977520;28;20058;-79
2023/03/01 07:39:43;;;;;;;25.88;13.90;;;0.70;74.60;;;;;;4993558;28;20061;-78
2023/03/01 07:42:08;;;;;;;25.25;12.40;;;0.80;74.60;;;;;;4980156;28;20066;-78
2023/03/01 07:44:34;;;;;;;28.10;14.32;;;0.90;74.50;;;;;;4960773;28;20164;-79
2023/03/01 07:47:00;;;;;;;32.80;15.27;;;0.90;74.30;;;;;;4975557;28;20037;-79
2023/03/01 07:49:28;;;;;;;27.48;13.98;;;1.00;74.30;;;;;;4979965;28;20045;-80
2023/03/01 07:51:54;;;;;;;37.33;15.95;;;1.10;74.20;;;;;;4981694;28;20034;-78
2023/03/01 07:54:19;;;;;;;34.72;15.55;;;1.20;74.20;;;;;;4996375;28;20030;-79
2023/03/01 07:56:45;;;;;;;27.63;14.07;;;1.30;74.10;;;;;;4967367;28;20043;-78
2023/03/01 07:59:10;;;;;;;26.85;12.00;;;1.40;74.00;;;;;;4961559;28;20042;-78
2023/03/01 08:01:36;;;;;;;19.08;11.25;;;1.50;74.00;;;;;;4971329;28;20050;-79
2023/03/01 08:04:01;;;;;;;23.45;12.57;;;1.60;73.80;;;;;;4994978;28;20038;-78
2023/03/01 08:06:27;;;;;;;27.40;13.00;;;1.70;73.70;;;;;;4963731;28;20073;-78
2023/03/01 08:08:55;;;;;;;21.88;11.02;;;1.80;73.60;;;;;;4960650;28;20231;-78
2023/03/01 08:11:20;;;;;;;18.80;11.20;;;1.90;73.40;;;;;;4983686;28;20042;-80
2023/03/01 08:13:47;;;;;;;18.85;11.07;;;2.00;73.40;;;;;;4983508;28;20675;-79
2023/03/01 08:16:14;;;;;;;26.75;12.43;;;2.10;73.20;;;;;;4965790;28;20111;-79
2023/03/01 08:18:39;;;;;;;20.88;11.38;;;2.20;73.20;;;;;;4953454;28;20666;-79
2023/03/01 08:21:06;;;;;;;21.88;11.15;;;2.30;73.00;;;;;;4995544;28;20057;-78
2023/03/01 08:23:31;;;;;;;20.23;10.20;;;2.40;72.90;;;;;;4956889;28;20812;-79
2023/03/01 08:26:07;;;;;;;19.88;10.35;;;2.50;72.70;;;;;;4966918;28;20049;-79
2023/03/01 08:28:33;;;;;;;17.95;10.65;;;2.70;72.60;;;;;;4952743;28;20049;-79
2023/03/01 08:30:59;;;;;;;19.00;10.55;;;2.70;72.40;;;;;;4982526;28;20042;-80
2023/03/01 08:33:24;;;;;;;19.63;10.57;;;2.80;72.40;;;;;;4992126;28;20048;-79
2023/03/01 08:35:50;;;;;;;22.23;10.77;;;3.00;72.40;;;;;;5004548;28;20072;-79
2023/03/01 08:38:15;;;;;;;19.70;10.18;;;3.10;72.20;;;;;;4985030;28;20130;-79
2023/03/01 08:40:41;;;;;;;18.60;10.00;;;3.20;72.00;;;;;;5004730;28;20125;-79
2023/03/01 08:43:06;;;;;;;21.20;11.75;;;3.30;71.80;;;;;;4999827;28;20118;-77
2023/03/01 08:45:32;;;;;;;22.77;10.75;;;3.40;71.60;;;;;;4998269;28;20032;-79
2023/03/01 08:47:57;;;;;;;19.25;11.32;;;3.60;71.50;;;;;;4994806;28;20048;-79
2023/03/01 08:50:24;;;;;;;18.20;10.23;;;3.70;71.40;;;;;;4998574;28;20365;-78
2023/03/01 08:52:49;;;;;;;19.80;10.93;;;3.80;71.30;;;;;;4997857;28;20049;-79
2023/03/01 08:55:16;;;;;;;18.08;10.40;;;3.90;71.10;;;;;;4996070;28;20083;-79
2023/03/01 08:57:42;;;;;;;21.67;11.07;;;4.00;70.90;;;;;;4984106;28;20122;-79
2023/03/01 09:00:09;;;;;;;20.10;11.65;;;4.20;70.90;;;;;;4992754;28;20056;-78
2023/03/01 09:02:35;;;;;;;16.77;10.30;;;4.30;70.70;;;;;;4996154;28;20566;-79
2023/03/01 09:05:00;;;;;;;16.67;9.48;;;4.50;70.50;;;;;;4987108;28;20065;-79
2023/03/01 09:07:29;;;;;;;20.27;10.15;;;4.60;70.40;;;;;;4999605;28;20538;-80
2023/03/01 09:09:55;;;;;;;17.48;10.20;;;4.80;70.10;;;;;;5000203;28;20041;-77
2023/03/01 09:12:20;;;;;;;18.77;10.27;;;4.90;69.80;;;;;;5002167;28;20185;-79
2023/03/01 09:14:46;;;;;;;17.10;9.18;;;5.00;69.50;;;;;;4972303;28;20240;-79
2023/03/01 09:17:11;;;;;;;18.27;9.90;;;5.10;69.40;;;;;;5019102;28;20049;-79
2023/03/01 09:19:37;;;;;;;19.42;10.45;;;5.20;69.40;;;;;;4998968;28;20052;-80
2023/03/01 09:22:04;;;;;;;15.60;9.05;;;5.40;69.40;;;;;;5001182;28;20033;-79
2023/03/01 09:24:29;;;;;;;16.55;10.32;;;5.50;68.90;;;;;;5006856;28;20280;-77
2023/03/01 09:26:55;;;;;;;17.05;10.48;;;5.70;68.80;;;;;;5003367;28;20041;-79
2023/03/01 09:29:21;;;;;;;17.38;10.10;;;5.80;68.60;;;;;;5000205;28;20049;-78
2023/03/01 09:31:46;;;;;;;17.23;10.15;;;5.90;68.30;;;;;;5003589;28;20129;-79
2023/03/01 09:34:15;;;;;;;16.98;9.82;;;6.00;68.10;;;;;;4999484;28;20650;-79
2023/03/01 09:36:40;;;;;;;16.50;9.65;;;6.10;67.90;;;;;;4975484;28;20040;-79
2023/03/01 09:39:06;;;;;;;15.95;9.85;;;6.20;67.50;;;;;;5003474;28;20034;-77
2023/03/01 09:41:44;;;;;;;14.77;9.38;;;6.40;67.30;;;;;;5004070;28;20038;-79
2023/03/01 09:44:35;;;;;;;15.20;9.25;;;6.50;67.30;;;;;;5016944;28;20037;-79
2023/03/01 09:47:01;;;;;;;15.50;9.43;;;6.60;66.70;;;;;;5006306;28;20132;-79
2023/03/01 09:49:31;;;;;;;19.75;10.20;;;6.80;66.80;;;;;;5005949;28;20310;-79
2023/03/01 09:52:02;;;;;;;16.58;9.45;;;6.90;66.60;;;;;;4995707;28;20034;-79
2023/03/01 09:54:28;;;;;;;17.38;9.60;;;7.00;67.10;;;;;;5014327;28;20061;-80
2023/03/01 09:57:20;;;;;;;15.25;9.85;;;7.10;66.00;;;;;;4996367;28;20468;-79
2023/03/01 10:00:10;;;;;;;17.13;10.20;;;7.30;65.70;;;;;;4991684;28;20033;-80
2023/03/01 10:03:15;;;;;;;19.45;10.38;;;7.50;65.10;;;;;;5013500;28;20038;-79
2023/03/01 10:05:50;;;;;;;16.63;9.90;;;7.70;65.00;;;;;;4922741;28;20049;-79
2023/03/01 10:08:30;;;;;;;15.65;9.18;;;7.80;65.20;;;;;;4920053;28;20043;-78
2023/03/01 10:10:57;;;;;;;15.05;9.63;;;8.00;64.70;;;;;;4903352;28;20042;-80
2023/03/01 10:13:27;;;;;;;21.95;11.07;;;8.10;65.00;;;;;;4912334;28;20035;-80
2023/03/01 10:15:57;;;;;;;13.38;9.48;;;8.30;64.60;;;;;;4921728;28;20039;-79
2023/03/01 10:18:27;;;;;;;27.38;12.20;;;8.40;64.20;;;;;;4914618;28;20640;-79
2023/03/01 10:20:54;;;;;;;94.97;33.80;;;8.60;63.90;;;;;;4918921;28;20039;-79
2023/03/01 10:23:19;;;;;;;71.93;25.83;;;8.70;63.40;;;;;;4931143;28;20043;-79
2023/03/01 10:26:11;;;;;;;39.55;18.05;;;8.80;63.10;;;;;;4909383;28;20180;-79
2023/03/01 10:29:08;;;;;;;19.42;10.88;;;8.90;62.60;;;;;;4911686;28;20099;-80
2023/03/01 10:31:45;;;;;;;25.20;13.45;;;9.10;62.50;;;;;;4927189;28;20044;-79
2023/03/01 10:34:22;;;;;;;28.17;13.07;;;9.30;62.30;;;;;;4915294;29;20036;-79
2023/03/01 10:36:49;;;;;;;18.85;10.70;;;9.40;62.40;;;;;;4891160;29;20039;-79
2023/03/01 10:39:20;;;;;;;17.02;10.13;;;9.50;62.20;;;;;;4929637;28;20082;-78
2023/03/01 10:42:04;;;;;;;54.60;24.02;;;9.70;61.70;;;;;;4965379;28;20034;-78
2023/03/01 10:44:47;;;;;;;19.23;10.27;;;9.80;60.50;;;;;;4967679;28;20149;-79
2023/03/01 10:47:20;;;;;;;16.95;9.80;;;9.90;60.20;;;;;;4965485;28;20062;-80
2023/03/01 10:49:53;;;;;;;15.50;8.80;;;10.00;60.70;;;;;;4995040;28;20135;-80
2023/03/01 10:52:21;;;;;;;15.27;9.75;;;10.20;60.70;;;;;;4955307;28;20034;-78
2023/03/01 10:54:58;;;;;;;14.82;8.82;;;10.40;60.80;;;;;;4960662;28;20045;-75
2023/03/01 10:57:31;;;;;;;15.30;8.90;;;10.50;60.20;;;;;;4947866;28;20113;-77
2023/03/01 11:00:18;;;;;;;22.83;13.57;;;10.60;59.80;;;;;;4950829;28;20066;-75
2023/03/01 11:02:51;;;;;;;29.10;16.38;;;10.70;58.70;;;;;;4976384;28;20088;-76
2023/03/01 11:05:23;;;;;;;21.73;13.68;;;10.70;59.20;;;;;;4957160;28;20123;-79
2023/03/01 11:07:53;;;;;;;19.75;10.80;;;10.80;59.00;;;;;;4973736;28;20707;-78
2023/03/01 11:10:30;;;;;;;20.25;12.45;;;10.80;58.60;;;;;;4988307;28;20641;-79
2023/03/01 11:13:18;;;;;;;17.80;11.85;;;10.90;58.00;;;;;;4958029;28;20528;-80
2023/03/01 11:15:57;;;;;;;14.52;9.23;;;11.10;57.50;;;;;;4975468;28;20038;-76
2023/03/01 11:18:22;;;;;;;16.20;10.10;;;11.20;58.20;;;;;;4955376;28;20044;-78
2023/03/01 11:20:49;;;;;;;15.00;9.30;;;11.30;58.00;;;;;;4974162;28;20034;-79
2023/03/01 11:23:14;;;;;;;14.00;9.60;;;11.50;57.80;;;;;;4957388;28;20046;-79
2023/03/01 11:26:10;;;;;;;13.73;9.63;;;11.60;57.60;;;;;;4957138;28;20558;-79
2023/03/01 11:28:36;;;;;;;14.32;9.45;;;11.70;56.80;;;;;;4986937;28;20681;-81
2023/03/01 11:31:12;;;;;;;14.13;10.00;;;11.90;57.00;;;;;;4963611;28;20061;-79
2023/03/01 11:33:48;;;;;;;13.52;9.05;;;12.00;56.70;;;;;;4980998;28;20922;-80
2023/03/01 11:36:32;;;;;;;13.48;9.82;;;12.10;56.20;;;;;;4984136;28;20034;-79
2023/03/01 11:39:02;;;;;;;14.23;9.57;;;12.20;56.30;;;;;;4994609;28;20055;-81
2023/03/01 11:41:30;;;;;;;23.58;11.13;;;12.20;56.40;;;;;;4997504;28;20038;-78
2023/03/01 11:44:01;;;;;;;16.80;11.05;;;12.40;56.10;;;;;;4995468;28;20562;-79
2023/03/01 11:46:49;;;;;;;16.05;10.02;;;12.50;55.70;;;;;;4972163;28;20052;-79
2023/03/01 11:49:55;;;;;;;15.50;10.70;;;12.60;55.20;;;;;;4989991;28;20049;-78
2023/03/01 11:52:49;;;;;;;17.65;10.15;;;12.70;54.50;;;;;;5010433;28;20048;-79
2023/03/01 11:55:20;;;;;;;14.13;8.85;;;12.80;54.00;;;;;;4997629;28;20767;-77
2023/03/01 11:58:26;;;;;;;13.38;8.82;;;12.90;54.80;;;;;;5010722;28;20431;-77
2023/03/01 12:01:11;;;;;;;14.30;9.52;;;13.00;53.80;;;;;;4982273;28;20064;-78
2023/03/01 12:03:42;;;;;;;12.82;7.38;;;13.20;53.40;;;;;;5007744;28;20046;-78
2023/03/01 12:06:26;;;;;;;13.75;8.52;;;13.30;54.40;;;;;;5011471;28;20085;-78
2023/03/01 12:09:00;;;;;;;15.60;9.30;;;13.40;53.90;;;;;;5010828;28;20570;-78
2023/03/01 12:11:39;;;;;;;13.00;9.63;;;13.60;53.90;;;;;;5012323;28;20087;-78
2023/03/01 12:14:39;;;;;;;15.32;9.32;;;13.50;52.70;;;;;;5009646;28;20038;-78
2023/03/01 12:17:20;;;;;;;17.80;9.10;;;13.50;52.30;;;;;;5013900;28;20334;-78
2023/03/01 12:20:17;;;;;;;13.35;8.63;;;13.50;52.80;;;;;;5009715;28;20053;-79
2023/03/01 12:22:52;;;;;;;13.10;9.35;;;13.60;52.70;;;;;;4966476;28;20033;-80
2023/03/01 12:25:39;;;;;;;12.40;9.00;;;13.70;53.00;;;;;;5009271;28;20037;-79
2023/03/01 12:28:26;;;;;;;12.23;8.55;;;13.80;53.20;;;;;;4995895;28;20043;-77
2023/03/01 12:31:29;;;;;;;15.13;8.52;;;13.90;52.10;;;;;;5009103;28;20440;-78
2023/03/01 12:34:17;;;;;;;13.93;7.97;;;14.00;51.30;;;;;;5012493;28;20042;-79
2023/03/01 12:37:19;;;;;;;10.38;7.70;;;14.10;51.90;;;;;;5010162;28;20145;-80
2023/03/01 12:40:12;;;;;;;11.85;8.40;;;14.20;51.30;;;;;;5010386;28;20745;-80
2023/03/01 12:42:52;;;;;;;14.57;8.18;;;14.40;51.30;;;;;;5000026;28;20057;-77
2023/03/01 12:45:44;;;;;;;15.55;8.88;;;14.60;51.60;;;;;;4993416;28;20116;-78
2023/03/01 12:48:50;;;;;;;12.23;8.90;;;14.70;50.10;;;;;;5006601;28;20513;-78
2023/03/01 12:51:19;;;;;;;12.93;8.18;;;14.80;49.80;;;;;;4990824;28;20388;-78
2023/03/01 12:53:48;;;;;;;11.73;7.85;;;14.90;50.90;;;;;;4979009;28;20053;-79